Creston, North Carolina
Current Conditions -  °F | °C
As of 5:15 AM on Saturday 20 Dec 2014 (Local Time) from KGEV Reporting Station
Overcast Overcast  
Wind Chill: 28°   Ceiling: 8000
Heat Index: 32°   Visibility: 10mi
Dew Point: 23°   Wind: 5mph
Humidity: 69%   Direction: 170°S
Pressure: 30.14"   Gusts: NA
Location:  36.43°N, 81.62°W
Report Text: KGEV 201015Z AUTO 17004KT 10SM SCT038 SCT060 OVC080 00/M05 A3014 RMK AO2 T00021049
Loading
Personal Weather Stations






























Interactive Weather Map New forecast layout! Learn more

10-Day Weather Forecast

Advertisements
Track Severe Weather on mobile